Share

Hazen, ND (58545)

9:39 AM CDT on April 24, 2014 (GMT -0500)
Mercer County Regional (KHZE) Elev 1814 ft | 47.29 °N, 101.58 °W | Change Station

Current weather conditions updated 24 minutes ago

Clear
Clear
41 °F
Feels Like 34 °F
N
12
Wind Variable Wind from West
Sunrise 6:41 AM
Sunset 8:48 PM
Moon Waning Crescent

Today is forecast to be Warmer than yesterday.

Pressure 29.75 in
Visibility 10.0 miles
Clouds Clear
Windchill 34 °F
Dew Point 30 °F
Humidity 65%
Rainfall 0.00 in
Snow Depth Not available.
UV 2 out of 16
Pollen 10.90 out of 12
Air Quality Not available.
Flu Activity Sporadic
METAR KHZE 241415Z AUTO 26010KT 10SM CLR 05/M01 A2975 RMK AO2

More Conditions Fewer Conditions

Pressure 29.75 in
Visibility 10.0 miles
Clouds Clear
Windchill 34 °F
Dew Point 30 °F
Humidity 65%
Rainfall 0.00 in
Snow Depth Not available.
UV 2 out of 16
Pollen 10.90 out of 12
Air Quality Not available.
Flu Activity Sporadic
METAR KHZE 241415Z AUTO 26010KT 10SM CLR 05/M01 A2975 RMK AO2

More Conditions Fewer Conditions

10-Day Weather Forecast

Almanac

Astronomy

Apr. 24, 2014 Rise Set
Actual Time 6:41 AM CDT 8:48 PM CDT
Civil Twilight 6:08 AM CDT 9:21 PM CDT
Nautical Twilight 5:27 AM CDT 10:03 PM CDT
Astronomical Twilight 4:41 AM CDT 10:49 PM CDT
Moon 4:14 AM CDT 3:47 PM CDT
Length of Visible Light 15h 13m
Length of Day
14h 06m
Tomorrow will be 3m 8s longer.
Waning Crescent, 25% of the Moon is Illuminated
Today
Waning Crescent
Apr 29
New
May 6
First Quarter
May 14
Full
May 21
Last Quarter

Today's Extremes

State Highs State Lows

Community

  • Clouds mov'n in
    Clouds mov'n in
  • Stacked
    Stacked
  • clouds approaching Red Sox Nation
    clouds approaching Red Sox Nation
  • Balance
    Balance
  • Citysky
    Citysky

WunderPhotos

Upload Photos

1,704,630 photos uploaded!

WunderBlogs® & News

Nearby

Snow Depth

Station Depth Elevation
No new snow has been reported.

Coastal Water Temperatures

Place Temperature
No Stations Reporting

Earthquake Activity

City Distance Mag. Time & Date
No recent earthquake activity has been reported nearby.
Minimum magnitude displayed is 2.5.

Nearby Weather Stations

Station Location Temp. Windchill Dew Point Humidity Wind Precip. Elev Updated Type
RAWS KNIFE RIVER ND, Stanton, ND 42 °F 37 °F 33 °F 70% West  at  9 mph 0.00 in / hr 1700 ft 7:50 AM MDT MADIS
Underwood Boat Landing, Underwood, ND 47.2 °F 47 °F 37 °F 67% SE  at  3.0 mph 0.00 in / hr 1713 ft 9:39 AM CDT Rapid Fire
RIVERDALE, ND, RIVERDALE, ND 46.3 °F 43 °F 32 °F 57% WNW  at  6.0 mph 0.00 in / hr 1988 ft 9:37 AM CDT Normal
Riverdale Area, Underwood, ND 44.9 °F 40 °F 33 °F 61% SSW  at  8.9 mph 0.00 in / hr 1975 ft 9:32 AM CDT Normal

Show More Stations Show Fewer Stations

What do you think?

We're not finished. Please let us know what you like, what you don't like, and what you are still missing.